createdAt,value
2019-02-07T00:00:36.138Z,87802.24
2019-02-07T00:03:02.985Z,87802.97
2019-02-07T00:05:29.764Z,87800.20
2019-02-07T00:07:56.550Z,87795.63
2019-02-07T00:10:23.475Z,87797.44
2019-02-07T00:12:50.260Z,87793.08
2019-02-07T00:15:17.035Z,87786.65
2019-02-07T00:17:43.903Z,87789.45
2019-02-07T00:20:17.329Z,87783.02
2019-02-07T00:22:44.127Z,87775.81
2019-02-07T00:25:11.069Z,87782.24
2019-02-07T00:27:37.850Z,87781.75
2019-02-07T00:30:10.059Z,87772.28
2019-02-07T00:32:36.986Z,87777.42
2019-02-07T00:35:07.282Z,87779.48
2019-02-07T00:37:34.079Z,87778.73
2019-02-07T00:40:01.003Z,87779.52
2019-02-07T00:42:27.805Z,87777.25
2019-02-07T00:44:54.599Z,87782.68
2019-02-07T00:47:21.825Z,87784.48
2019-02-07T00:49:48.598Z,87776.55
2019-02-07T00:52:15.391Z,87780.14
2019-02-07T00:54:42.313Z,87778.86
2019-02-07T00:57:12.798Z,87778.86
2019-02-07T00:59:39.573Z,87773.03
2019-02-07T01:02:06.489Z,87775.89
2019-02-07T01:04:33.560Z,87776.14
2019-02-07T01:07:00.343Z,87774.13
2019-02-07T01:09:27.268Z,87770.77
2019-02-07T01:11:54.049Z,87765.11
2019-02-07T01:14:20.825Z,87766.16
2019-02-07T01:16:47.758Z,87767.95
2019-02-07T01:19:14.536Z,87767.71
2019-02-07T01:21:41.312Z,87761.81
2019-02-07T01:24:08.251Z,87758.48
2019-02-07T01:26:35.030Z,87755.16
2019-02-07T01:29:01.798Z,87755.42
2019-02-07T01:31:28.706Z,87759.00
2019-02-07T01:33:55.487Z,87759.04
2019-02-07T01:36:22.268Z,87755.94
2019-02-07T01:38:49.302Z,87757.22
2019-02-07T01:41:16.368Z,87753.36
2019-02-07T01:43:43.143Z,87755.68
2019-02-07T01:46:10.000Z,87746.66
2019-02-07T01:48:36.786Z,87751.05
2019-02-07T01:51:03.578Z,87745.92
2019-02-07T01:53:30.508Z,87742.81
2019-02-07T01:55:57.297Z,87744.34
2019-02-07T01:58:24.105Z,87738.95
2019-02-07T02:00:51.436Z,87734.11
2019-02-07T02:03:18.229Z,87732.61
2019-02-07T02:05:45.002Z,87737.76
2019-02-07T02:08:11.936Z,87732.91
2019-02-07T02:10:38.721Z,87729.59
2019-02-07T02:13:05.516Z,87729.10
2019-02-07T02:15:32.450Z,87718.59
2019-02-07T02:17:59.234Z,87714.52
2019-02-07T02:20:26.037Z,87708.13
2019-02-07T02:22:54.347Z,87703.00
2019-02-07T02:25:21.145Z,87704.80
2019-02-07T02:27:47.935Z,87698.42
2019-02-07T02:30:34.091Z,87700.45
2019-02-07T02:33:01.179Z,87698.44
2019-02-07T02:35:27.965Z,87702.02
2019-02-07T02:37:54.873Z,87697.94
2019-02-07T02:40:21.651Z,87697.66
2019-02-07T02:42:48.457Z,87691.25
2019-02-07T02:45:20.690Z,87689.76
2019-02-07T02:47:47.778Z,87685.36
2019-02-07T02:50:17.158Z,87683.28
2019-02-07T02:52:44.085Z,87679.94
2019-02-07T02:55:10.854Z,87679.42
2019-02-07T02:57:37.638Z,87676.34
2019-02-07T03:00:14.242Z,87675.80
2019-02-07T03:02:41.045Z,87671.22
2019-02-07T03:05:08.227Z,87667.66
2019-02-07T03:07:35.151Z,87671.25
2019-02-07T03:10:01.942Z,87667.70
2019-02-07T03:12:28.725Z,87665.91
2019-02-07T03:14:55.646Z,87660.28
2019-02-07T03:17:22.423Z,87653.88
2019-02-07T03:19:49.247Z,87649.54
2019-02-07T03:22:16.169Z,87646.22
2019-02-07T03:24:43.497Z,87643.40
2019-02-07T03:27:10.244Z,87643.45
2019-02-07T03:29:37.169Z,87633.72
2019-02-07T03:32:04.258Z,87633.21
2019-02-07T03:34:31.048Z,87627.84
2019-02-07T03:36:57.903Z,87628.90
2019-02-07T03:39:24.716Z,87626.34
2019-02-07T03:41:51.515Z,87633.80
2019-02-07T03:44:18.473Z,87624.35
2019-02-07T03:46:45.257Z,87623.08
2019-02-07T03:49:12.033Z,87625.38
2019-02-07T03:51:38.988Z,87614.36
2019-02-07T03:54:05.764Z,87621.55
2019-02-07T03:56:32.563Z,87621.83
2019-02-07T03:58:59.495Z,87617.22
2019-02-07T04:01:26.715Z,87613.64
2019-02-07T04:03:53.547Z,87616.22
2019-02-07T04:06:20.367Z,87616.48
2019-02-07T04:08:47.171Z,87616.73
2019-02-07T04:11:13.948Z,87613.16
2019-02-07T04:13:40.871Z,87610.09
2019-02-07T04:16:15.178Z,87608.55
2019-02-07T04:18:36.234Z,87608.82
2019-02-07T04:21:03.092Z,87607.02
2019-02-07T04:23:29.868Z,87598.30
2019-02-07T04:25:56.661Z,87598.78
2019-02-07T04:28:23.597Z,87592.15
2019-02-07T04:30:50.401Z,87588.53
2019-02-07T04:33:17.181Z,87581.63
2019-02-07T04:35:44.061Z,87585.76
2019-02-07T04:38:11.029Z,87585.26
2019-02-07T04:40:37.826Z,87577.58
2019-02-07T04:43:04.740Z,87576.02
2019-02-07T04:45:31.545Z,87578.58
2019-02-07T04:47:58.310Z,87573.98
2019-02-07T04:50:25.244Z,87574.03
2019-02-07T04:52:52.034Z,87566.09
2019-02-07T04:55:19.125Z,87565.36
2019-02-07T04:57:46.055Z,87565.88
2019-02-07T05:00:15.517Z,87558.70
2019-02-07T05:02:42.296Z,87563.05
2019-02-07T05:05:09.200Z,87555.92
2019-02-07T05:07:35.995Z,87555.67
2019-02-07T05:10:07.593Z,87552.88
2019-02-07T05:12:34.710Z,87550.82
2019-02-07T05:15:01.562Z,87549.56
2019-02-07T05:17:28.358Z,87545.98
2019-02-07T05:19:55.283Z,87552.39
2019-02-07T05:22:22.060Z,87545.49
2019-02-07T05:24:48.873Z,87543.17
2019-02-07T05:27:15.700Z,87545.49
2019-02-07T05:29:42.492Z,87540.38
2019-02-07T05:32:09.569Z,87537.33
2019-02-07T05:34:36.407Z,87536.84
2019-02-07T05:37:03.182Z,87533.78
2019-02-07T05:39:29.975Z,87530.95
2019-02-07T05:41:56.883Z,87528.89
2019-02-07T05:44:23.684Z,87523.79
2019-02-07T05:46:51.297Z,87525.84
2019-02-07T05:49:18.209Z,87516.11
2019-02-07T05:51:44.984Z,87517.16
2019-02-07T05:54:11.769Z,87512.54
2019-02-07T05:56:38.709Z,87509.44
2019-02-07T05:59:05.492Z,87504.08
2019-02-07T06:01:32.334Z,87504.81
2019-02-07T06:03:59.276Z,87500.97
2019-02-07T06:06:26.235Z,87501.76
2019-02-07T06:08:53.808Z,87507.15
2019-02-07T06:11:22.636Z,87502.30
2019-02-07T06:13:49.412Z,87508.42
2019-02-07T06:16:16.205Z,87506.88
2019-02-07T06:18:44.414Z,87508.92
2019-02-07T06:21:11.223Z,87512.53
2019-02-07T06:23:38.022Z,87508.42
2019-02-07T06:26:05.338Z,87516.37
2019-02-07T06:28:32.125Z,87516.38
2019-02-07T06:30:58.888Z,87511.27
2019-02-07T06:33:25.882Z,87511.00
2019-02-07T06:35:52.671Z,87512.83
2019-02-07T06:38:19.452Z,87515.38
2019-02-07T06:40:46.368Z,87514.09
2019-02-07T06:43:13.182Z,87515.34
2019-02-07T06:45:41.990Z,87511.47
2019-02-07T06:48:08.914Z,87516.30
2019-02-07T06:50:35.708Z,87516.06
2019-02-07T06:53:02.500Z,87516.07
2019-02-07T06:55:29.439Z,87514.31
2019-02-07T06:57:57.720Z,87511.48
2019-02-07T07:00:24.509Z,87521.99
2019-02-07T07:02:51.803Z,87510.98
2019-02-07T07:05:19.505Z,87515.09
2019-02-07T07:07:46.296Z,87519.14
2019-02-07T07:10:13.303Z,87516.81
2019-02-07T07:12:40.117Z,87515.78
2019-02-07T07:15:09.852Z,87513.45
2019-02-07T07:17:36.706Z,87511.67
2019-02-07T07:20:07.909Z,87513.21
2019-02-07T07:22:34.737Z,87504.67
2019-02-07T07:25:01.658Z,87502.78
2019-02-07T07:27:28.442Z,87505.28
2019-02-07T07:29:55.229Z,87501.92
2019-02-07T07:32:22.172Z,87495.19
2019-02-07T07:34:49.009Z,87494.06
2019-02-07T07:37:15.799Z,87485.23
2019-02-07T07:39:42.655Z,87487.47
2019-02-07T07:42:09.438Z,87486.31
2019-02-07T07:44:36.234Z,87486.48
2019-02-07T07:47:03.133Z,87485.08
2019-02-07T07:49:29.921Z,87477.75
2019-02-07T07:51:56.716Z,87477.36
2019-02-07T07:54:23.928Z,87476.22
2019-02-07T07:56:50.717Z,87482.24
2019-02-07T07:59:17.511Z,87479.57
2019-02-07T08:01:44.344Z,87477.41
2019-02-07T08:04:11.175Z,87477.78
2019-02-07T08:06:37.959Z,87465.59
2019-02-07T08:09:09.395Z,87471.06
2019-02-07T08:11:36.595Z,87471.91
2019-02-07T08:14:04.387Z,87469.42
2019-02-07T08:16:31.283Z,87469.87
2019-02-07T08:18:58.065Z,87463.28
2019-02-07T08:21:24.858Z,87463.81
2019-02-07T08:23:51.787Z,87461.75
2019-02-07T08:26:18.574Z,87460.94
2019-02-07T08:28:45.750Z,87456.34
2019-02-07T08:31:12.674Z,87457.14
2019-02-07T08:33:39.486Z,87458.83
2019-02-07T08:36:06.263Z,87460.84
2019-02-07T08:38:33.102Z,87453.78
2019-02-07T08:40:59.875Z,87453.83
2019-02-07T08:43:26.670Z,87459.15
2019-02-07T08:45:53.559Z,87455.37
2019-02-07T08:48:20.616Z,87460.23
2019-02-07T08:50:47.416Z,87454.08
2019-02-07T08:53:14.361Z,87447.55
2019-02-07T08:55:41.144Z,87444.23
2019-02-07T08:58:07.928Z,87442.45
2019-02-07T09:00:34.868Z,87439.73
2019-02-07T09:03:01.656Z,87438.55
2019-02-07T09:05:28.890Z,87435.99
2019-02-07T09:07:55.824Z,87429.81
2019-02-07T09:10:22.603Z,87426.15
2019-02-07T09:12:49.432Z,87426.52
2019-02-07T09:15:16.356Z,87419.33
2019-02-07T09:17:43.143Z,87414.03
2019-02-07T09:20:10.538Z,87402.78
2019-02-07T09:22:37.464Z,87405.25
2019-02-07T09:25:05.357Z,87397.62
2019-02-07T09:27:32.148Z,87385.89
2019-02-07T09:29:58.979Z,87394.45
2019-02-07T09:32:25.767Z,87387.77
2019-02-07T09:34:52.568Z,87385.30
2019-02-07T09:37:19.710Z,87387.53
2019-02-07T09:39:46.514Z,87389.33
2019-02-07T09:42:13.699Z,87389.09
2019-02-07T09:44:40.650Z,87392.22
2019-02-07T09:47:07.417Z,87385.83
2019-02-07T09:49:34.197Z,87390.10
2019-02-07T09:52:01.138Z,87386.72
2019-02-07T09:54:27.930Z,87388.80
2019-02-07T09:56:54.722Z,87382.61
2019-02-07T09:59:21.635Z,87379.80
2019-02-07T10:01:48.431Z,87377.72
2019-02-07T10:04:18.783Z,87378.37
2019-02-07T10:06:45.633Z,87373.81
2019-02-07T10:09:12.420Z,87367.14
2019-02-07T10:11:39.211Z,87369.44
2019-02-07T10:14:06.117Z,87366.33
2019-02-07T10:16:32.977Z,87359.09
2019-02-07T10:18:59.977Z,87350.27
2019-02-07T10:21:26.824Z,87352.62
2019-02-07T10:23:53.618Z,87354.44
2019-02-07T10:26:20.411Z,87348.64
2019-02-07T10:28:47.354Z,87352.58
2019-02-07T10:31:14.137Z,87348.31
2019-02-07T10:33:40.926Z,87349.58
2019-02-07T10:36:07.849Z,87348.34
2019-02-07T10:38:34.622Z,87337.50
2019-02-07T10:41:04.122Z,87331.39
2019-02-07T10:43:31.040Z,87326.86
2019-02-07T10:45:57.851Z,87321.42
2019-02-07T10:48:24.641Z,87319.32
2019-02-07T10:50:51.599Z,87311.97
2019-02-07T10:53:18.381Z,87314.19
2019-02-07T10:55:45.267Z,87307.69
2019-02-07T10:58:12.209Z,87303.39
2019-02-07T11:00:38.991Z,87305.25
2019-02-07T11:03:05.765Z,87297.73
2019-02-07T11:05:32.690Z,87289.89
2019-02-07T11:07:59.492Z,87282.95
2019-02-07T11:10:26.266Z,87278.89
2019-02-07T11:12:53.388Z,87276.23
2019-02-07T11:15:20.225Z,87272.05
2019-02-07T11:17:47.014Z,87273.16
2019-02-07T11:20:15.863Z,87266.59
2019-02-07T11:22:42.671Z,87273.44
2019-02-07T11:25:09.452Z,87268.72
2019-02-07T11:27:36.399Z,87267.33
2019-02-07T11:30:11.894Z,87264.87
2019-02-07T11:32:38.827Z,87263.81
2019-02-07T11:35:05.624Z,87262.08
2019-02-07T11:37:33.083Z,87257.31
2019-02-07T11:40:00.028Z,87254.21
2019-02-07T11:42:26.826Z,87247.83
2019-02-07T11:44:53.833Z,87243.84
2019-02-07T11:47:20.767Z,87244.81
2019-02-07T11:49:47.544Z,87245.87
2019-02-07T11:52:14.327Z,87245.33
2019-02-07T11:54:41.274Z,87240.22
2019-02-07T11:57:08.065Z,87232.41
2019-02-07T11:59:34.845Z,87234.77
2019-02-07T12:02:08.736Z,87226.94
2019-02-07T12:04:30.277Z,87226.55
2019-02-07T12:06:57.124Z,87224.59
2019-02-07T12:09:24.151Z,87218.14
2019-02-07T12:11:51.030Z,87221.81
2019-02-07T12:14:17.830Z,87215.95
2019-02-07T12:16:44.761Z,87211.64
2019-02-07T12:19:18.202Z,87201.14
2019-02-07T12:21:40.334Z,87197.80
2019-02-07T12:24:07.270Z,87200.50
2019-02-07T12:26:34.071Z,87194.66
2019-02-07T12:29:00.904Z,87193.76
2019-02-07T12:31:27.835Z,87189.70
2019-02-07T12:33:56.272Z,87192.72
2019-02-07T12:36:23.215Z,87194.51
2019-02-07T12:38:50.106Z,87186.23
2019-02-07T12:41:16.899Z,87182.86
2019-02-07T12:43:43.709Z,87183.16
2019-02-07T12:46:10.629Z,87185.75
2019-02-07T12:48:37.428Z,87177.17
2019-02-07T12:51:05.326Z,87176.59
2019-02-07T12:53:32.205Z,87172.16
2019-02-07T12:55:59.651Z,87172.77
2019-02-07T12:58:26.440Z,87167.51
2019-02-07T13:00:53.599Z,87169.27
2019-02-07T13:03:20.399Z,87166.13
2019-02-07T13:05:47.184Z,87159.65
2019-02-07T13:08:14.180Z,87154.91
2019-02-07T13:10:41.003Z,87160.44
2019-02-07T13:13:07.768Z,87150.47
2019-02-07T13:15:34.993Z,87151.95
2019-02-07T13:18:01.812Z,87150.06
2019-02-07T13:20:28.589Z,87152.25
2019-02-07T13:22:55.534Z,87153.62
2019-02-07T13:25:22.318Z,87151.59
2019-02-07T13:27:49.179Z,87155.39
2019-02-07T13:30:19.335Z,87150.98
2019-02-07T13:32:45.569Z,87150.16
2019-02-07T13:35:12.491Z,87151.34
2019-02-07T13:37:39.466Z,87150.77
2019-02-07T13:40:09.712Z,87150.99
2019-02-07T13:42:37.712Z,87147.28
2019-02-07T13:45:10.527Z,87145.38
2019-02-07T14:58:00.872Z,87036.55
2019-02-07T15:00:27.839Z,87031.21
2019-02-07T15:03:22.044Z,87045.34
2019-02-07T15:06:27.350Z,87062.58
2019-02-07T15:08:54.322Z,87068.35
2019-02-07T15:11:21.185Z,87079.17
2019-02-07T15:13:48.271Z,87088.08
2019-02-07T15:16:15.188Z,87091.45
2019-02-07T15:18:41.995Z,87098.51
2019-02-07T15:21:08.851Z,87100.08
2019-02-07T15:23:35.782Z,87103.84
2019-02-07T15:26:02.588Z,87107.13
2019-02-07T15:28:29.693Z,87113.69
2019-02-07T15:30:56.674Z,87123.73
2019-02-07T15:33:23.479Z,87114.58
2019-02-07T15:35:50.252Z,87124.63
2019-02-07T15:38:17.155Z,87127.52
2019-02-07T15:40:43.952Z,87126.49
2019-02-07T15:43:10.736Z,87130.66
2019-02-07T15:45:37.697Z,87133.33
2019-02-07T15:48:04.474Z,87136.50
2019-02-07T15:50:37.738Z,87136.72
2019-02-07T15:53:00.039Z,87130.55
2019-02-07T15:55:26.823Z,87126.36
2019-02-07T15:57:53.832Z,87130.84
2019-02-07T16:00:23.506Z,87134.73
2019-02-07T16:02:50.291Z,87130.96
2019-02-07T16:05:17.094Z,87125.35
2019-02-07T16:07:44.025Z,87129.58
2019-02-07T16:10:15.509Z,87129.70
2019-02-07T16:12:42.344Z,87126.55
2019-02-07T16:15:11.072Z,87125.03
2019-02-07T16:17:37.883Z,87122.00
2019-02-07T16:20:15.746Z,87117.45
2019-02-07T16:22:42.927Z,87125.80
2019-02-07T16:25:12.855Z,87129.38
2019-02-07T16:27:39.788Z,87129.58
2019-02-07T16:30:18.520Z,87124.70
2019-02-07T16:32:45.444Z,87124.37
2019-02-07T16:35:15.232Z,87118.84
2019-02-07T16:37:42.263Z,87121.45
2019-02-07T16:40:12.185Z,87125.02
2019-02-07T16:42:38.963Z,87126.84
2019-02-07T16:45:13.384Z,87127.61
2019-02-07T16:47:40.320Z,87127.48
2019-02-07T16:50:12.550Z,87119.16
2019-02-07T16:52:39.398Z,87117.53
2019-02-07T16:55:09.520Z,87123.45
2019-02-07T16:57:36.305Z,87123.11
2019-02-07T17:00:17.098Z,87118.56
2019-02-07T17:02:45.265Z,87120.81
2019-02-07T17:05:13.486Z,87132.83
2019-02-07T17:07:40.670Z,87136.09
2019-02-07T17:10:17.927Z,87139.17
2019-02-07T17:12:44.927Z,87143.05
2019-02-07T17:15:18.127Z,87139.34
2019-02-07T17:17:48.671Z,87149.19
2019-02-07T17:20:22.911Z,87152.08
2019-02-07T17:22:50.864Z,87156.73
2019-02-07T17:25:17.617Z,87152.50
2019-02-07T17:27:44.684Z,87154.56
2019-02-07T17:30:19.609Z,87158.45
2019-02-07T17:32:46.840Z,87169.78
2019-02-07T17:35:14.520Z,87171.50
2019-02-07T17:37:41.311Z,87171.27
2019-02-07T17:40:15.488Z,87170.41
2019-02-07T17:42:42.258Z,87161.42
2019-02-07T17:45:15.727Z,87165.55
2019-02-07T17:47:42.852Z,87166.31
2019-02-07T17:50:23.221Z,87162.42
2019-02-07T17:52:50.489Z,87161.77
2019-02-07T17:55:23.925Z,87160.17
2019-02-07T17:57:50.735Z,87158.34
2019-02-07T18:00:30.968Z,87173.78
2019-02-07T18:02:57.770Z,87170.02
2019-02-07T18:05:26.256Z,87175.50
2019-02-07T18:07:54.513Z,87173.23
2019-02-07T18:10:21.307Z,87174.72
2019-02-07T18:12:50.864Z,87171.80
2019-02-07T18:15:17.767Z,87172.89
2019-02-07T18:17:44.950Z,87171.16
2019-02-07T18:20:22.492Z,87178.28
2019-02-07T18:22:51.801Z,87173.77
2019-02-07T18:25:18.564Z,87176.80
2019-02-07T18:27:45.531Z,87174.64
2019-02-07T18:30:20.981Z,87168.92
2019-02-07T18:32:47.937Z,87170.02
2019-02-07T18:35:16.060Z,87172.38
2019-02-07T18:37:42.865Z,87167.63
2019-02-07T18:40:19.794Z,87172.28
2019-02-07T18:42:46.590Z,87169.34
2019-02-07T18:45:15.974Z,87172.70
2019-02-07T18:47:42.812Z,87170.84
2019-02-07T18:50:23.720Z,87172.14
2019-02-07T18:52:50.653Z,87173.78
2019-02-07T18:55:17.468Z,87178.44
2019-02-07T18:57:44.289Z,87185.36
2019-02-07T19:00:26.889Z,87186.13
2019-02-07T19:02:53.693Z,87188.86
2019-02-07T19:05:22.014Z,87196.06
2019-02-07T19:07:48.963Z,87195.97
2019-02-07T19:10:19.307Z,87196.73
2019-02-07T19:12:46.176Z,87205.58
2019-02-07T19:15:37.298Z,87205.81
2019-02-07T19:18:04.255Z,87202.45
2019-02-07T19:20:31.140Z,87200.19
2019-02-07T19:22:58.136Z,87206.36
2019-02-07T19:25:25.002Z,87205.94
2019-02-07T19:27:52.079Z,87204.44
2019-02-07T19:30:26.543Z,87208.53
2019-02-07T19:32:54.099Z,87214.48
2019-02-07T19:35:20.925Z,87216.31
2019-02-07T19:37:47.853Z,87217.52
2019-02-07T19:40:19.015Z,87219.25
2019-02-07T19:42:46.103Z,87219.92
2019-02-07T19:45:22.409Z,87222.52
2019-02-07T19:47:49.288Z,87221.36
2019-02-07T19:50:25.001Z,87218.20
2019-02-07T19:52:51.874Z,87225.36
2019-02-07T19:55:22.646Z,87232.38
2019-02-07T19:57:49.878Z,87232.17
2019-02-07T20:00:20.250Z,87230.98
2019-02-07T20:02:47.223Z,87223.44
2019-02-07T20:05:14.178Z,87237.18
2019-02-07T20:07:41.045Z,87233.81
2019-02-07T20:10:28.885Z,87231.12
2019-02-07T20:12:56.598Z,87234.69
2019-02-07T20:15:37.045Z,87233.38
2019-02-07T20:18:06.235Z,87231.33
2019-02-07T20:20:33.085Z,87232.00
2019-02-07T20:22:59.993Z,87229.22
2019-02-07T20:25:26.911Z,87231.39
2019-02-07T20:27:54.109Z,87227.70
2019-02-07T20:30:24.414Z,87231.06
2019-02-07T20:32:51.202Z,87232.69
2019-02-07T20:35:18.007Z,87232.36
2019-02-07T20:37:44.877Z,87233.89
2019-02-07T20:40:17.081Z,87228.60
2019-02-07T20:42:44.477Z,87236.50
2019-02-07T20:45:12.332Z,87231.84
2019-02-07T20:47:43.167Z,87233.90
2019-02-07T20:50:20.349Z,87227.55
2019-02-07T20:52:51.816Z,87231.64
2019-02-07T20:55:23.769Z,87233.17
2019-02-07T20:57:51.093Z,87232.61
2019-02-07T21:00:23.553Z,87234.47
2019-02-07T21:02:53.390Z,87231.31
2019-02-07T21:05:20.188Z,87229.81
2019-02-07T21:07:46.968Z,87229.05
2019-02-07T21:10:21.293Z,87230.34
2019-02-07T21:12:48.092Z,87226.02
2019-02-07T21:15:18.870Z,87221.89
2019-02-07T21:17:45.571Z,87220.93
2019-02-07T21:20:17.474Z,87220.20
2019-02-07T21:22:44.277Z,87226.78
2019-02-07T21:25:16.524Z,87225.58
2019-02-07T21:27:43.316Z,87222.45
2019-02-07T21:30:15.218Z,87223.95
2019-02-07T21:32:42.464Z,87220.59
2019-02-07T21:35:16.732Z,87224.72
2019-02-07T21:37:43.590Z,87229.91
2019-02-07T21:40:16.923Z,87224.38
2019-02-07T21:42:43.720Z,87234.77
2019-02-07T21:45:13.967Z,87228.60
2019-02-07T21:47:40.763Z,87233.80
2019-02-07T21:50:12.454Z,87233.80
2019-02-07T21:52:41.890Z,87235.39
2019-02-07T21:55:11.896Z,87238.98
2019-02-07T21:57:38.680Z,87234.95
2019-02-07T22:00:13.142Z,87229.77
2019-02-07T22:02:39.933Z,87237.34
2019-02-07T22:05:07.216Z,87234.84
2019-02-07T22:07:34.066Z,87235.28
2019-02-07T22:10:00.855Z,87234.95
2019-02-07T22:12:27.635Z,87234.19
2019-02-07T22:14:54.481Z,87238.08
2019-02-07T22:17:21.277Z,87237.88
2019-02-07T22:19:48.094Z,87238.41
2019-02-07T22:22:14.975Z,87242.30
2019-02-07T22:24:41.949Z,87245.12
2019-02-07T22:27:08.739Z,87242.64
2019-02-07T22:29:35.600Z,87240.38
2019-02-07T22:32:02.400Z,87244.13
2019-02-07T22:34:29.192Z,87241.10
2019-02-07T22:36:56.059Z,87241.63
2019-02-07T22:39:22.839Z,87241.75
2019-02-07T22:41:49.621Z,87241.75
2019-02-07T22:44:16.773Z,87246.72
2019-02-07T22:46:43.547Z,87243.88
2019-02-07T22:49:10.314Z,87245.51
2019-02-07T22:51:37.171Z,87235.89
2019-02-07T22:54:03.950Z,87239.35
2019-02-07T22:56:30.722Z,87232.33
2019-02-07T23:01:42.667Z,87229.50
2019-02-07T23:04:09.515Z,87225.27
2019-02-07T23:06:36.306Z,87225.50
2019-02-07T23:09:05.515Z,87226.47
2019-02-07T23:11:32.357Z,87227.23
2019-02-07T23:13:59.141Z,87226.81
2019-02-07T23:16:26.342Z,87223.78
2019-02-07T23:18:54.975Z,87220.95
2019-02-07T23:21:21.910Z,87223.88
2019-02-07T23:23:48.687Z,87216.52
2019-02-07T23:26:15.532Z,87222.33
2019-02-07T23:28:42.321Z,87222.33
2019-02-07T23:31:09.119Z,87222.95
2019-02-07T23:33:35.960Z,87222.95
2019-02-07T23:36:03.145Z,87223.27
2019-02-07T23:38:29.951Z,87220.63
2019-02-07T23:40:56.784Z,87229.06
2019-02-07T23:43:23.574Z,87223.41
2019-02-07T23:45:50.359Z,87220.16
2019-02-07T23:48:17.195Z,87224.47
2019-02-07T23:50:43.970Z,87213.42
2019-02-07T23:53:14.696Z,87214.81
2019-02-07T23:55:39.396Z,87209.95
2019-02-07T23:58:06.179Z,87209.61
